createdAt,value
2023-01-29T00:00:00.035Z,1035.12
2023-01-29T00:00:31.434Z,1034.91
2023-01-29T00:01:03.481Z,1034.91
2023-01-29T00:01:34.116Z,1035.01
2023-01-29T00:02:08.984Z,1035.22
2023-01-29T00:02:41.457Z,1035.22
2023-01-29T00:03:01.737Z,1035.12
2023-01-29T00:03:27.509Z,1035.12
2023-01-29T00:03:58.921Z,1035.12
2023-01-29T00:04:32.684Z,1035.22
2023-01-29T00:05:16.695Z,1035.22
2023-01-29T00:05:34.089Z,1035.12
2023-01-29T00:06:10.469Z,1035.12
2023-01-29T00:06:44.046Z,1035.01
2023-01-29T00:07:05.185Z,1035.01
2023-01-29T00:07:43.186Z,1035.01
2023-01-29T00:08:06.190Z,1035.12
2023-01-29T00:08:28.414Z,1035.12
2023-01-29T00:09:02.885Z,1035.12
2023-01-29T00:09:33.664Z,1035.12
2023-01-29T00:10:07.258Z,1035.12
2023-01-29T00:10:38.808Z,1035.12
2023-01-29T00:11:01.656Z,1034.91
2023-01-29T00:11:23.947Z,1034.91
2023-01-29T00:11:59.136Z,1034.91
2023-01-29T00:12:30.897Z,1034.91
2023-01-29T00:13:02.800Z,1034.91
2023-01-29T00:13:33.588Z,1034.91
2023-01-29T00:14:06.918Z,1034.91
2023-01-29T00:14:38.806Z,1034.91
2023-01-29T00:15:05.087Z,1034.81
2023-01-29T00:15:24.787Z,1034.81
2023-01-29T00:15:58.946Z,1034.81
2023-01-29T00:16:30.977Z,1034.91
2023-01-29T00:17:03.294Z,1034.91
2023-01-29T00:17:33.708Z,1034.91
2023-01-29T00:18:06.936Z,1034.91
2023-01-29T00:18:39.259Z,1034.91
2023-01-29T00:19:01.937Z,1034.81
2023-01-29T00:19:24.349Z,1034.81
2023-01-29T00:19:59.182Z,1034.81
2023-01-29T00:20:30.984Z,1034.81
2023-01-29T00:21:02.926Z,1034.81
2023-01-29T00:21:33.645Z,1034.91
2023-01-29T00:22:06.938Z,1034.91
2023-01-29T00:22:39.013Z,1034.81
2023-01-29T00:23:03.593Z,1034.64
2023-01-29T00:23:26.363Z,1034.64
2023-01-29T00:23:58.893Z,1034.64
2023-01-29T00:24:31.307Z,1034.81
2023-01-29T00:25:02.948Z,1034.81
2023-01-29T00:25:33.606Z,1034.71
2023-01-29T00:26:06.937Z,1034.71
2023-01-29T00:26:33.339Z,1034.71
2023-01-29T00:27:05.419Z,1034.64
2023-01-29T00:27:42.833Z,1034.64
2023-01-29T00:28:05.427Z,1034.71
2023-01-29T00:28:27.798Z,1034.71
2023-01-29T00:29:03.013Z,1034.71
2023-01-29T00:29:33.608Z,1034.91
2023-01-29T00:30:06.967Z,1034.91
2023-01-29T00:30:39.360Z,1034.81
2023-01-29T00:31:02.192Z,1034.71
2023-01-29T00:31:24.632Z,1034.71
2023-01-29T00:32:00.684Z,1034.71
2023-01-29T00:32:31.359Z,1034.71
2023-01-29T00:33:02.980Z,1034.71
2023-01-29T00:33:33.680Z,1035.12
2023-01-29T00:34:06.893Z,1035.12
2023-01-29T00:34:39.348Z,1035.12
2023-01-29T00:35:02.267Z,1034.81
2023-01-29T00:35:24.748Z,1034.81
2023-01-29T00:35:58.817Z,1034.81
2023-01-29T00:36:30.794Z,1034.91
2023-01-29T00:37:02.943Z,1034.91
2023-01-29T00:37:33.601Z,1034.91
2023-01-29T00:38:06.985Z,1034.91
2023-01-29T00:38:38.916Z,1034.91
2023-01-29T00:39:04.600Z,1034.81
2023-01-29T00:39:31.386Z,1034.81
2023-01-29T00:39:59.207Z,1034.81
2023-01-29T00:40:30.853Z,1034.71
2023-01-29T00:41:02.850Z,1034.71
2023-01-29T00:41:33.628Z,1034.71
2023-01-29T00:42:06.946Z,1034.71
2023-01-29T00:42:39.102Z,1035.01
2023-01-29T00:43:02.525Z,1034.71
2023-01-29T00:43:26.678Z,1034.71
2023-01-29T00:43:58.829Z,1034.71
2023-01-29T00:44:30.904Z,1034.71
2023-01-29T00:45:03.262Z,1034.71
2023-01-29T00:45:34.159Z,1034.71
2023-01-29T00:46:06.833Z,1034.71
2023-01-29T00:46:38.928Z,1034.91
2023-01-29T00:47:02.816Z,1035.01
2023-01-29T00:47:25.150Z,1035.01
2023-01-29T00:47:58.899Z,1035.01
2023-01-29T00:48:31.188Z,1034.81
2023-01-29T00:49:04.381Z,1034.81
2023-01-29T00:49:33.979Z,1034.71
2023-01-29T00:50:06.964Z,1034.71
2023-01-29T00:50:38.848Z,1035.01
2023-01-29T00:51:02.307Z,1035.12
2023-01-29T00:51:24.662Z,1035.12
2023-01-29T00:51:59.534Z,1035.12
2023-01-29T00:52:31.263Z,1034.91
2023-01-29T00:53:03.000Z,1034.91
2023-01-29T00:53:33.614Z,1035.01
2023-01-29T00:54:08.360Z,1035.01
2023-01-29T00:54:39.047Z,1034.81
2023-01-29T00:55:01.971Z,1035.01
2023-01-29T00:55:24.169Z,1035.01
2023-01-29T00:55:59.109Z,1035.01
2023-01-29T00:56:30.958Z,1035.12
2023-01-29T00:57:02.947Z,1035.12
2023-01-29T00:57:33.758Z,1034.91
2023-01-29T00:58:07.066Z,1034.91
2023-01-29T00:58:38.899Z,1035.01
2023-01-29T00:59:05.959Z,1034.71
2023-01-29T00:59:24.755Z,1034.71
2023-01-29T00:59:58.780Z,1034.71
2023-01-29T01:00:31.013Z,1034.81
2023-01-29T01:01:03.554Z,1034.81
2023-01-29T01:01:35.115Z,1034.91
2023-01-29T01:02:07.001Z,1034.91
2023-01-29T01:02:38.990Z,1034.81
2023-01-29T01:03:02.255Z,1035.01
2023-01-29T01:03:24.841Z,1035.01
2023-01-29T01:03:58.947Z,1035.01
2023-01-29T01:04:33.076Z,1035.01
2023-01-29T01:05:02.899Z,1035.01
2023-01-29T01:05:33.608Z,1034.91
2023-01-29T01:06:06.813Z,1034.91
2023-01-29T01:06:39.193Z,1035.01
2023-01-29T01:07:06.166Z,1034.81
2023-01-29T01:07:42.974Z,1034.81
2023-01-29T01:08:07.177Z,1034.71
2023-01-29T01:08:28.354Z,1034.71
2023-01-29T01:09:03.187Z,1034.71
2023-01-29T01:09:33.637Z,1034.91
2023-01-29T01:10:06.887Z,1034.91
2023-01-29T01:10:38.912Z,1035.01
2023-01-29T01:11:01.784Z,1035.12
2023-01-29T01:11:25.782Z,1035.12
2023-01-29T01:11:58.997Z,1035.12
2023-01-29T01:12:30.906Z,1035.01
2023-01-29T01:13:03.012Z,1035.01
2023-01-29T01:13:35.178Z,1035.01
2023-01-29T01:14:07.102Z,1035.01
2023-01-29T01:14:38.993Z,1034.91
2023-01-29T01:15:01.945Z,1035.01
2023-01-29T01:15:26.034Z,1035.01
2023-01-29T01:15:59.058Z,1035.01
2023-01-29T01:16:31.187Z,1034.81
2023-01-29T01:17:02.930Z,1034.81
2023-01-29T01:17:33.866Z,1035.01
2023-01-29T01:18:06.942Z,1035.01
2023-01-29T01:18:38.827Z,1035.01
2023-01-29T01:19:01.736Z,1035.01
2023-01-29T01:19:24.073Z,1035.01
2023-01-29T01:19:59.023Z,1035.01
2023-01-29T01:20:31.018Z,1034.81
2023-01-29T01:21:02.823Z,1034.81
2023-01-29T01:21:33.698Z,1034.91
2023-01-29T01:22:06.904Z,1034.91
2023-01-29T01:22:39.002Z,1035.01
2023-01-29T01:23:03.200Z,1034.71
2023-01-29T01:23:27.298Z,1034.71
2023-01-29T01:23:59.023Z,1034.71
2023-01-29T01:24:31.009Z,1034.81
2023-01-29T01:25:03.338Z,1034.81
2023-01-29T01:25:33.634Z,1034.91
2023-01-29T01:26:06.948Z,1034.91
2023-01-29T01:26:38.859Z,1034.71
2023-01-29T01:27:02.287Z,1034.64
2023-01-29T01:27:24.754Z,1034.64
2023-01-29T01:28:30.941Z,1034.71
2023-01-29T01:29:03.050Z,1034.71
2023-01-29T01:29:34.828Z,1034.91
2023-01-29T01:30:07.226Z,1034.91
2023-01-29T01:30:38.893Z,1034.81
2023-01-29T01:31:01.788Z,1034.71
2023-01-29T01:31:24.027Z,1034.71
2023-01-29T01:31:59.059Z,1034.71
2023-01-29T01:32:31.216Z,1034.71
2023-01-29T01:33:02.945Z,1034.71
2023-01-29T01:33:33.723Z,1034.81
2023-01-29T01:34:07.017Z,1034.81
2023-01-29T01:34:38.877Z,1034.81
2023-01-29T01:35:01.750Z,1034.64
2023-01-29T01:35:24.467Z,1034.64
2023-01-29T01:35:58.937Z,1034.64
2023-01-29T01:36:30.949Z,1034.64
2023-01-29T01:37:02.934Z,1034.64
2023-01-29T01:37:33.681Z,1034.64
2023-01-29T01:38:06.940Z,1034.64
2023-01-29T01:38:38.965Z,1034.64
2023-01-29T01:39:02.020Z,1034.64
2023-01-29T01:39:24.075Z,1034.64
2023-01-29T01:39:58.841Z,1034.64
2023-01-29T01:40:30.949Z,1034.34
2023-01-29T01:41:02.879Z,1034.34
2023-01-29T01:41:33.632Z,1034.44
2023-01-29T01:42:06.814Z,1034.44
2023-01-29T01:42:38.937Z,1034.34
2023-01-29T01:43:02.194Z,1034.54
2023-01-29T01:43:24.267Z,1034.54
2023-01-29T01:43:59.232Z,1034.54
2023-01-29T01:44:30.969Z,1034.54
2023-01-29T01:45:03.357Z,1034.54
2023-01-29T01:45:33.734Z,1034.34
2023-01-29T01:46:07.317Z,1034.34
2023-01-29T01:46:38.961Z,1034.34
2023-01-29T01:47:01.690Z,1034.44
2023-01-29T01:47:24.049Z,1034.44
2023-01-29T01:47:59.305Z,1034.44
2023-01-29T01:48:31.097Z,1034.54
2023-01-29T01:49:03.180Z,1034.54
2023-01-29T01:49:33.644Z,1034.54
2023-01-29T01:50:07.185Z,1034.54
2023-01-29T01:50:39.117Z,1034.54
2023-01-29T01:51:04.666Z,1034.24
2023-01-29T01:51:43.481Z,1034.24
2023-01-29T01:52:08.416Z,1034.54
2023-01-29T01:52:30.843Z,1034.54
2023-01-29T01:53:03.032Z,1034.54
2023-01-29T01:53:34.060Z,1034.64
2023-01-29T01:54:07.073Z,1034.64
2023-01-29T01:54:39.071Z,1034.64
2023-01-29T01:55:01.779Z,1034.54
2023-01-29T01:55:24.151Z,1034.54
2023-01-29T01:55:59.007Z,1034.54
2023-01-29T01:56:31.904Z,1034.34
2023-01-29T01:57:02.970Z,1034.34
2023-01-29T01:57:33.707Z,1034.54
2023-01-29T01:58:06.877Z,1034.54
2023-01-29T01:58:38.981Z,1034.54
2023-01-29T01:59:01.993Z,1034.54
2023-01-29T01:59:25.888Z,1034.54
2023-01-29T01:59:59.358Z,1034.54
2023-01-29T02:00:31.983Z,1034.44
2023-01-29T02:01:03.057Z,1034.44
2023-01-29T02:01:34.168Z,1034.71
2023-01-29T02:02:07.520Z,1034.71
2023-01-29T02:02:38.908Z,1034.44
2023-01-29T02:03:01.793Z,1034.64
2023-01-29T02:03:24.198Z,1034.64
2023-01-29T02:04:33.122Z,1034.64
2023-01-29T02:05:02.995Z,1034.64
2023-01-29T02:05:33.684Z,1034.54
2023-01-29T02:06:06.952Z,1034.54
2023-01-29T02:06:38.857Z,1034.64
2023-01-29T02:07:01.871Z,1034.44
2023-01-29T02:07:24.297Z,1034.44
2023-01-29T02:07:59.280Z,1034.44
2023-01-29T02:08:32.705Z,1034.34
2023-01-29T02:09:03.243Z,1034.34
2023-01-29T02:09:33.840Z,1034.44
2023-01-29T02:10:07.007Z,1034.44
2023-01-29T02:10:38.980Z,1034.44
2023-01-29T02:11:01.976Z,1034.44
2023-01-29T02:11:24.294Z,1034.44
2023-01-29T02:11:58.956Z,1034.44
2023-01-29T02:12:33.151Z,1034.71
2023-01-29T02:13:02.989Z,1034.71
2023-01-29T02:13:33.766Z,1034.54
2023-01-29T02:14:07.198Z,1034.54
2023-01-29T02:14:39.121Z,1034.64
2023-01-29T02:15:02.062Z,1034.71
2023-01-29T02:15:24.045Z,1034.71
2023-01-29T02:15:59.026Z,1034.71
2023-01-29T02:16:31.500Z,1034.44
2023-01-29T02:17:03.110Z,1034.44
2023-01-29T02:17:34.227Z,1034.54
2023-01-29T02:18:07.044Z,1034.54
2023-01-29T02:18:38.839Z,1034.44
2023-01-29T02:19:01.707Z,1034.64
2023-01-29T02:19:24.070Z,1034.64
2023-01-29T02:19:59.225Z,1034.64
2023-01-29T02:20:30.972Z,1034.71
2023-01-29T02:21:02.949Z,1034.71
2023-01-29T02:21:34.702Z,1034.64
2023-01-29T02:22:06.992Z,1034.64
2023-01-29T02:22:38.899Z,1034.81
2023-01-29T02:23:03.907Z,1034.64
2023-01-29T02:23:26.084Z,1034.64
2023-01-29T02:23:59.115Z,1034.64
2023-01-29T02:24:31.006Z,1034.71
2023-01-29T02:25:02.962Z,1034.71
2023-01-29T02:25:35.477Z,1034.81
2023-01-29T02:26:07.190Z,1034.81
2023-01-29T02:26:39.027Z,1034.64
2023-01-29T02:27:02.157Z,1034.91
2023-01-29T02:27:24.354Z,1034.91
2023-01-29T02:27:58.970Z,1034.91
2023-01-29T02:28:31.129Z,1034.91
2023-01-29T02:29:02.976Z,1034.91
2023-01-29T02:29:35.793Z,1034.71
2023-01-29T02:30:07.583Z,1034.71
2023-01-29T02:30:39.065Z,1034.64
2023-01-29T02:31:01.604Z,1034.91
2023-01-29T02:31:24.230Z,1034.91
2023-01-29T02:31:59.188Z,1034.91
2023-01-29T02:32:30.956Z,1034.64
2023-01-29T02:33:02.896Z,1034.64
2023-01-29T02:33:33.788Z,1034.81
2023-01-29T02:34:06.999Z,1034.81
2023-01-29T02:34:39.109Z,1034.81
2023-01-29T02:35:35.644Z,1034.64
2023-01-29T02:35:55.687Z,1034.64
2023-01-29T02:36:31.373Z,1034.71
2023-01-29T02:37:03.670Z,1034.71
2023-01-29T02:37:33.906Z,1034.71
2023-01-29T02:38:06.876Z,1034.71
2023-01-29T02:38:39.004Z,1034.54
2023-01-29T02:39:04.110Z,1034.71
2023-01-29T02:39:24.856Z,1034.71
2023-01-29T02:39:58.960Z,1034.71
2023-01-29T02:40:30.919Z,1034.81
2023-01-29T02:41:02.970Z,1034.81
2023-01-29T02:41:33.770Z,1034.71
2023-01-29T02:42:06.941Z,1034.71
2023-01-29T02:42:38.892Z,1034.71
2023-01-29T02:43:01.597Z,1034.71
2023-01-29T02:43:24.069Z,1034.71
2023-01-29T02:43:58.908Z,1034.71
2023-01-29T02:44:30.951Z,1034.71
2023-01-29T02:45:03.614Z,1034.71
2023-01-29T02:45:33.781Z,1034.71
2023-01-29T02:46:07.034Z,1034.71
2023-01-29T02:46:38.973Z,1034.54
2023-01-29T02:47:01.965Z,1034.81
2023-01-29T02:47:24.636Z,1034.81
2023-01-29T02:47:59.121Z,1034.81
2023-01-29T02:48:31.122Z,1034.81
2023-01-29T02:49:03.013Z,1034.81
2023-01-29T02:49:33.829Z,1034.91
2023-01-29T02:50:06.921Z,1034.91
2023-01-29T02:50:39.000Z,1034.81
2023-01-29T02:51:01.676Z,1034.64
2023-01-29T02:51:23.969Z,1034.64
2023-01-29T02:51:59.044Z,1034.64
2023-01-29T02:52:30.900Z,1034.91
2023-01-29T02:53:03.078Z,1034.91
2023-01-29T02:53:33.746Z,1034.91
2023-01-29T02:54:06.888Z,1034.91
2023-01-29T02:54:39.026Z,1034.81
2023-01-29T02:55:01.878Z,1035.01
2023-01-29T02:55:24.179Z,1035.01
2023-01-29T02:55:59.048Z,1035.01
2023-01-29T02:56:31.313Z,1034.91
2023-01-29T02:57:02.847Z,1034.91
2023-01-29T02:57:33.964Z,1035.01
2023-01-29T02:58:07.246Z,1035.01
2023-01-29T02:58:44.647Z,1034.81
2023-01-29T02:59:01.878Z,1034.91
2023-01-29T02:59:24.461Z,1034.91
2023-01-29T02:59:59.140Z,1034.91
2023-01-29T03:00:32.493Z,1034.81
2023-01-29T03:01:02.915Z,1034.81
2023-01-29T03:01:33.774Z,1034.81
2023-01-29T03:02:06.936Z,1034.81
2023-01-29T03:02:39.860Z,1034.64
2023-01-29T03:03:09.213Z,1035.01
2023-01-29T03:03:31.655Z,1035.01
2023-01-29T03:03:59.515Z,1035.01
2023-01-29T03:04:31.030Z,1035.01
2023-01-29T03:05:02.990Z,1035.01
2023-01-29T03:05:42.238Z,1034.91
2023-01-29T03:06:07.264Z,1034.91
2023-01-29T03:06:42.624Z,1034.91
2023-01-29T03:07:02.003Z,1034.71
2023-01-29T03:07:24.035Z,1034.71
2023-01-29T03:07:59.192Z,1034.71
2023-01-29T03:08:31.038Z,1034.54
2023-01-29T03:09:03.028Z,1034.54
2023-01-29T03:09:34.118Z,1034.81
2023-01-29T03:10:07.237Z,1034.81
2023-01-29T03:10:40.560Z,1034.71
2023-01-29T03:11:01.925Z,1034.81
2023-01-29T03:11:24.227Z,1034.81
2023-01-29T03:11:59.033Z,1034.81
2023-01-29T03:12:31.019Z,1034.81
2023-01-29T03:13:02.912Z,1034.81
2023-01-29T03:13:33.755Z,1034.71
2023-01-29T03:14:07.016Z,1034.71
2023-01-29T03:14:40.978Z,1035.01
2023-01-29T03:15:02.084Z,1034.71
2023-01-29T03:15:24.137Z,1034.71
2023-01-29T03:15:59.143Z,1034.71
2023-01-29T03:16:31.240Z,1034.64
2023-01-29T03:17:02.921Z,1034.64
2023-01-29T03:17:33.674Z,1034.64
2023-01-29T03:18:07.223Z,1034.64
2023-01-29T03:18:39.032Z,1034.54
2023-01-29T03:19:02.148Z,1034.54
2023-01-29T03:19:24.386Z,1034.54
2023-01-29T03:19:59.025Z,1034.54
2023-01-29T03:20:24.953Z,1034.64
2023-01-29T03:21:03.530Z,1034.64
2023-01-29T03:21:33.766Z,1034.64
2023-01-29T03:22:06.995Z,1034.64
2023-01-29T03:22:39.503Z,1034.81
2023-01-29T03:23:02.226Z,1034.64
2023-01-29T03:23:24.413Z,1034.64
2023-01-29T03:23:59.254Z,1034.64
2023-01-29T03:24:31.129Z,1034.71
2023-01-29T03:25:04.362Z,1034.71
2023-01-29T03:25:33.831Z,1034.71
2023-01-29T03:26:07.004Z,1034.71
2023-01-29T03:26:38.953Z,1034.64
2023-01-29T03:27:01.802Z,1034.91
2023-01-29T03:27:24.389Z,1034.91
2023-01-29T03:27:59.228Z,1034.91
2023-01-29T03:28:31.732Z,1034.64
2023-01-29T03:29:03.133Z,1034.64
2023-01-29T03:29:34.005Z,1034.54
2023-01-29T03:30:08.016Z,1034.54
2023-01-29T03:30:39.228Z,1034.81
2023-01-29T03:31:02.047Z,1034.71
2023-01-29T03:31:24.643Z,1034.71
2023-01-29T03:31:59.714Z,1034.71
2023-01-29T03:32:31.076Z,1034.64
2023-01-29T03:33:03.226Z,1034.64
2023-01-29T03:33:33.803Z,1034.64
2023-01-29T03:34:07.042Z,1034.64
2023-01-29T03:34:39.480Z,1034.71
2023-01-29T03:35:03.623Z,1034.44
2023-01-29T03:35:31.619Z,1034.44
2023-01-29T03:35:54.213Z,1034.44
2023-01-29T03:36:31.346Z,1034.64
2023-01-29T03:37:03.016Z,1034.64
2023-01-29T03:37:33.712Z,1034.81
2023-01-29T03:38:06.931Z,1034.81
2023-01-29T03:38:38.895Z,1034.64
2023-01-29T03:39:02.637Z,1034.64
2023-01-29T03:39:32.427Z,1034.64
2023-01-29T03:39:59.146Z,1034.64
2023-01-29T03:40:31.205Z,1034.64
2023-01-29T03:41:03.099Z,1034.64
2023-01-29T03:41:33.806Z,1034.64
2023-01-29T03:42:06.952Z,1034.64
2023-01-29T03:42:39.298Z,1034.54
2023-01-29T03:43:01.652Z,1034.71
2023-01-29T03:43:23.934Z,1034.71
2023-01-29T03:43:59.069Z,1034.71
2023-01-29T03:44:31.433Z,1034.71
2023-01-29T03:45:03.197Z,1034.71
2023-01-29T03:45:34.275Z,1034.54
2023-01-29T03:46:07.032Z,1034.54
2023-01-29T03:46:39.679Z,1034.91
2023-01-29T03:47:02.544Z,1034.54
2023-01-29T03:47:24.835Z,1034.54
2023-01-29T03:47:58.967Z,1034.54
2023-01-29T03:48:30.933Z,1034.64
2023-01-29T03:49:03.137Z,1034.64
2023-01-29T03:49:33.707Z,1034.64
2023-01-29T03:50:07.240Z,1034.64
2023-01-29T03:50:38.996Z,1034.71
2023-01-29T03:51:01.924Z,1034.54
2023-01-29T03:51:24.015Z,1034.54
2023-01-29T03:51:59.023Z,1034.54
2023-01-29T03:52:30.935Z,1034.64
2023-01-29T03:53:03.549Z,1034.64
2023-01-29T03:53:33.789Z,1034.64
2023-01-29T03:54:06.977Z,1034.64
2023-01-29T03:54:39.013Z,1034.44
2023-01-29T03:55:01.850Z,1034.54
2023-01-29T03:55:24.139Z,1034.54
2023-01-29T03:55:59.193Z,1034.54
2023-01-29T03:56:31.879Z,1034.64
2023-01-29T03:57:03.030Z,1034.64
2023-01-29T03:57:34.210Z,1034.64
2023-01-29T03:58:07.340Z,1034.64
2023-01-29T03:58:38.941Z,1034.54
2023-01-29T03:59:02.408Z,1034.71
2023-01-29T03:59:24.831Z,1034.71
2023-01-29T03:59:59.028Z,1034.71
2023-01-29T04:00:47.700Z,1034.64
2023-01-29T04:01:10.189Z,1034.71
2023-01-29T04:01:32.611Z,1034.71
2023-01-29T04:02:07.090Z,1034.71
2023-01-29T04:02:39.127Z,1034.64
2023-01-29T04:03:01.662Z,1034.64
2023-01-29T04:03:24.266Z,1034.64
2023-01-29T04:03:59.390Z,1034.64
2023-01-29T04:04:31.133Z,1034.64
2023-01-29T04:05:03.573Z,1034.64
2023-01-29T04:05:34.223Z,1034.54
2023-01-29T04:06:07.389Z,1034.54
2023-01-29T04:06:39.322Z,1034.64
2023-01-29T04:07:01.787Z,1034.54
2023-01-29T04:07:24.236Z,1034.54
2023-01-29T04:07:59.221Z,1034.54
2023-01-29T04:08:31.257Z,1034.54
2023-01-29T04:09:04.031Z,1034.54
2023-01-29T04:09:33.843Z,1034.64
2023-01-29T04:10:07.026Z,1034.64
2023-01-29T04:10:39.125Z,1034.54
2023-01-29T04:11:01.719Z,1034.44
2023-01-29T04:11:24.216Z,1034.44
2023-01-29T04:11:59.107Z,1034.44
2023-01-29T04:12:31.515Z,1034.54
2023-01-29T04:13:03.164Z,1034.54
2023-01-29T04:13:33.941Z,1034.54
2023-01-29T04:14:07.007Z,1034.54
2023-01-29T04:14:39.368Z,1034.64
2023-01-29T04:15:02.249Z,1034.64
2023-01-29T04:15:24.375Z,1034.64
2023-01-29T04:15:59.226Z,1034.64
2023-01-29T04:16:31.324Z,1034.54
2023-01-29T04:17:03.667Z,1034.54
2023-01-29T04:17:33.758Z,1034.44
2023-01-29T04:18:07.130Z,1034.44
2023-01-29T04:18:39.083Z,1034.44
2023-01-29T04:19:01.741Z,1034.64
2023-01-29T04:19:24.206Z,1034.64
2023-01-29T04:19:59.118Z,1034.64
2023-01-29T04:20:32.035Z,1034.54
2023-01-29T04:21:03.158Z,1034.54
2023-01-29T04:21:33.905Z,1034.54
2023-01-29T04:22:07.435Z,1034.54
2023-01-29T04:22:39.394Z,1034.81
2023-01-29T04:23:02.253Z,1034.64
2023-01-29T04:23:24.334Z,1034.64
2023-01-29T04:23:59.234Z,1034.64
2023-01-29T04:24:31.028Z,1034.64
2023-01-29T04:25:03.385Z,1034.64
2023-01-29T04:25:33.775Z,1034.54
2023-01-29T04:26:07.681Z,1034.54
2023-01-29T04:26:39.579Z,1034.44
2023-01-29T04:27:02.291Z,1034.54
2023-01-29T04:27:24.718Z,1034.54
2023-01-29T04:27:59.324Z,1034.54
2023-01-29T04:28:31.993Z,1034.44
2023-01-29T04:29:03.735Z,1034.44
2023-01-29T04:29:33.862Z,1034.44
2023-01-29T04:30:07.858Z,1034.44
2023-01-29T04:30:39.257Z,1034.34
2023-01-29T04:31:01.982Z,1034.54
2023-01-29T04:31:24.303Z,1034.54
2023-01-29T04:31:59.815Z,1034.54
2023-01-29T04:32:31.604Z,1034.13
2023-01-29T04:33:03.082Z,1034.13
2023-01-29T04:33:33.763Z,1034.03
2023-01-29T04:34:07.949Z,1034.03
2023-01-29T04:34:40.925Z,1034.24
2023-01-29T04:35:02.044Z,1034.34
2023-01-29T04:35:29.149Z,1034.34
2023-01-29T04:35:59.339Z,1034.34
2023-01-29T04:36:31.691Z,1034.13
2023-01-29T04:37:04.742Z,1034.13
2023-01-29T04:37:35.049Z,1034.13
2023-01-29T04:38:07.612Z,1034.13
2023-01-29T04:38:39.988Z,1034.24
2023-01-29T04:39:02.911Z,1034.03
2023-01-29T04:39:26.711Z,1034.03
2023-01-29T04:40:00.557Z,1034.03
2023-01-29T04:40:32.890Z,1034.13
2023-01-29T04:41:04.896Z,1033.93
2023-01-29T04:41:38.940Z,1033.93
2023-01-29T04:42:07.375Z,1033.93
2023-01-29T04:42:39.125Z,1033.93
2023-01-29T04:43:01.857Z,1034.03
2023-01-29T04:43:24.525Z,1034.03
2023-01-29T04:43:59.058Z,1034.03
2023-01-29T04:44:31.083Z,1033.93
2023-01-29T04:45:03.264Z,1033.93
2023-01-29T04:45:34.431Z,1033.83
2023-01-29T04:46:07.210Z,1033.83
2023-01-29T04:46:39.382Z,1034.03
2023-01-29T04:47:02.108Z,1034.13
2023-01-29T04:47:24.495Z,1034.13
2023-01-29T04:48:00.862Z,1034.13
2023-01-29T04:48:31.056Z,1034.13
2023-01-29T04:49:03.518Z,1034.13
2023-01-29T04:49:33.794Z,1033.93
2023-01-29T04:50:08.847Z,1034.24
2023-01-29T04:50:39.079Z,1034.24
2023-01-29T04:51:01.593Z,1034.03
2023-01-29T04:51:24.667Z,1034.03
2023-01-29T04:51:59.021Z,1034.03
2023-01-29T04:52:31.129Z,1034.03
2023-01-29T04:53:03.264Z,1034.03
2023-01-29T04:53:34.277Z,1033.83
2023-01-29T04:54:07.033Z,1033.83
2023-01-29T04:54:39.611Z,1033.93
2023-01-29T04:55:01.819Z,1033.83
2023-01-29T04:55:24.436Z,1033.83
2023-01-29T04:56:06.263Z,1033.93
2023-01-29T04:56:28.334Z,1033.93
2023-01-29T04:57:03.114Z,1033.93
2023-01-29T04:57:33.683Z,1033.83
2023-01-29T04:58:07.106Z,1033.83
2023-01-29T04:58:38.969Z,1033.93
2023-01-29T04:59:03.287Z,1033.83
2023-01-29T04:59:25.702Z,1033.83
2023-01-29T04:59:59.103Z,1033.83
2023-01-29T05:00:31.286Z,1033.93
2023-01-29T05:01:03.237Z,1033.93
2023-01-29T05:01:33.911Z,1033.73
2023-01-29T05:02:07.081Z,1033.73
2023-01-29T05:02:39.215Z,1033.93
2023-01-29T05:03:03.802Z,1033.63
2023-01-29T05:03:24.550Z,1033.63
2023-01-29T05:03:59.336Z,1033.63
2023-01-29T05:04:31.435Z,1033.52
2023-01-29T05:05:03.239Z,1033.52
2023-01-29T05:05:33.708Z,1033.63
2023-01-29T05:06:08.622Z,1033.63
2023-01-29T05:06:39.224Z,1033.63
2023-01-29T05:07:02.266Z,1033.73
2023-01-29T05:07:25.050Z,1033.73
2023-01-29T05:07:59.422Z,1033.73
2023-01-29T05:08:32.042Z,1033.63
2023-01-29T05:09:04.564Z,1033.63
2023-01-29T05:09:33.910Z,1033.52
2023-01-29T05:10:07.170Z,1033.52
2023-01-29T05:10:38.984Z,1033.52
2023-01-29T05:11:01.907Z,1033.22
2023-01-29T05:11:25.064Z,1033.22
2023-01-29T05:11:59.582Z,1033.22
2023-01-29T05:12:31.311Z,1033.42
2023-01-29T05:13:03.103Z,1033.42
2023-01-29T05:13:33.674Z,1033.22
2023-01-29T05:14:06.972Z,1033.22
2023-01-29T05:14:39.122Z,1033.42
2023-01-29T05:15:01.935Z,1033.32
2023-01-29T05:15:24.376Z,1033.32
2023-01-29T05:15:59.052Z,1033.32
2023-01-29T05:16:31.171Z,1033.42
2023-01-29T05:17:03.619Z,1033.42
2023-01-29T05:17:33.808Z,1033.63
2023-01-29T05:18:07.189Z,1033.63
2023-01-29T05:18:39.807Z,1033.32
2023-01-29T05:19:02.040Z,1033.32
2023-01-29T05:19:24.349Z,1033.32
2023-01-29T05:19:59.060Z,1033.32
2023-01-29T05:20:31.146Z,1033.42
2023-01-29T05:21:02.956Z,1033.42
2023-01-29T05:21:33.740Z,1033.32
2023-01-29T05:22:06.933Z,1033.32
2023-01-29T05:22:40.006Z,1033.32
2023-01-29T05:23:01.740Z,1033.32
2023-01-29T05:23:24.307Z,1033.32
2023-01-29T05:23:59.100Z,1033.32
2023-01-29T05:24:31.340Z,1033.52
2023-01-29T05:25:03.154Z,1033.52
2023-01-29T05:25:33.871Z,1033.32
2023-01-29T05:26:07.184Z,1033.32
2023-01-29T05:26:40.521Z,1033.22
2023-01-29T05:27:01.897Z,1033.32
2023-01-29T05:27:24.370Z,1033.32
2023-01-29T05:28:04.629Z,1033.32
2023-01-29T05:28:30.966Z,1033.22
2023-01-29T05:29:03.235Z,1033.22
2023-01-29T05:29:33.755Z,1033.42
2023-01-29T05:30:07.298Z,1033.42
2023-01-29T05:30:40.888Z,1033.32
2023-01-29T05:31:01.999Z,1033.42
2023-01-29T05:31:24.213Z,1033.42
2023-01-29T05:31:59.163Z,1033.42
2023-01-29T05:32:31.471Z,1033.42
2023-01-29T05:33:03.085Z,1033.42
2023-01-29T05:33:33.727Z,1033.63
2023-01-29T05:34:07.102Z,1033.63
2023-01-29T05:34:41.131Z,1033.73
2023-01-29T05:35:02.540Z,1033.63
2023-01-29T05:35:25.257Z,1033.63
2023-01-29T05:35:59.726Z,1033.63
2023-01-29T05:36:27.870Z,1033.73
2023-01-29T05:37:04.041Z,1033.73
2023-01-29T05:37:35.964Z,1033.93
2023-01-29T05:38:08.876Z,1033.93
2023-01-29T05:38:41.607Z,1033.63
2023-01-29T05:39:03.876Z,1033.63
2023-01-29T05:39:24.717Z,1033.63
2023-01-29T05:40:00.194Z,1033.63
2023-01-29T05:40:31.149Z,1033.93
2023-01-29T05:41:07.710Z,1034.03
2023-01-29T05:41:36.874Z,1034.03
2023-01-29T05:42:08.222Z,1034.03
2023-01-29T05:42:40.582Z,1033.83
2023-01-29T05:43:01.688Z,1034.03
2023-01-29T05:43:24.581Z,1034.03
2023-01-29T05:44:00.800Z,1034.03
2023-01-29T05:44:31.528Z,1033.93
2023-01-29T05:45:03.186Z,1033.93
2023-01-29T05:45:36.033Z,1034.13
2023-01-29T05:46:07.457Z,1034.13
2023-01-29T05:46:40.146Z,1034.24
2023-01-29T05:47:02.901Z,1033.93
2023-01-29T05:47:25.174Z,1033.93
2023-01-29T05:47:59.195Z,1033.93
2023-01-29T05:48:31.443Z,1034.13
2023-01-29T05:49:03.200Z,1034.13
2023-01-29T05:49:37.291Z,1034.13
2023-01-29T05:50:08.090Z,1034.13
2023-01-29T05:50:39.093Z,1034.13
2023-01-29T05:51:01.855Z,1034.03
2023-01-29T05:51:24.400Z,1034.03
2023-01-29T05:51:58.992Z,1034.03
2023-01-29T05:52:31.170Z,1034.13
2023-01-29T05:53:03.086Z,1034.13
2023-01-29T05:53:33.892Z,1034.03
2023-01-29T05:54:07.172Z,1034.03
2023-01-29T05:54:40.388Z,1033.93
2023-01-29T05:55:02.879Z,1034.03
2023-01-29T05:55:25.281Z,1034.03
2023-01-29T05:55:59.346Z,1034.03
2023-01-29T05:56:31.156Z,1034.13
2023-01-29T05:57:03.194Z,1034.13
2023-01-29T05:57:33.862Z,1033.93
2023-01-29T05:58:07.065Z,1033.93
2023-01-29T05:58:39.085Z,1034.24
2023-01-29T05:59:01.781Z,1034.03
2023-01-29T05:59:24.460Z,1034.03
2023-01-29T05:59:59.563Z,1034.03
2023-01-29T06:00:33.269Z,1033.93
2023-01-29T06:01:03.810Z,1033.93
2023-01-29T06:01:34.182Z,1033.93
2023-01-29T06:02:07.116Z,1033.93
2023-01-29T06:02:39.187Z,1033.93
2023-01-29T06:03:03.440Z,1034.03
2023-01-29T06:03:24.248Z,1034.03
2023-01-29T06:03:59.899Z,1034.03